Doloroso, Mississippi
Current Conditions -  °F | °C
As of 2:35 AM on Saturday 29 Nov 2014 (Local Time) from KHEZ Reporting Station
Clear Clear  
Wind Chill: 10°   Ceiling: Unl
Heat Index: 10°   Visibility: 10mi
Dew Point:   Wind: 13mph
Humidity: 82%   Direction: 170°S
Pressure: 30.17"   Gusts: NA
Location:  31.1784°N, 91.3525°W
Report Text: KHEZ 290835Z AUTO 17011KT 10SM CLR 10/07 A3017 RMK AO1
Loading
Personal Weather Stations






























Interactive Weather Map New forecast layout! Learn more

10-Day Weather Forecast

Advertisements
Track Severe Weather on mobile